Tongue Point, Oregon
Current Conditions -  °F | °C
As of 4:27 AM on Thursday 29 Jan 2015 (Local Time) from KAST Reporting Station
Haze Haze  
Wind Chill: 40°   Ceiling: Unl
Heat Index: 40°   Visibility: 5mi
Dew Point: 40°   Wind: 0mph
Humidity: 100%   Direction: NA
Pressure: 30.3"   Gusts: NA
Location:  46.0947°N, 123.685°W
Report Text: KAST 291227Z AUTO 00000KT 5SM BR CLR 04/04 A3030 RMK AO2 VIS 1/4 RWY 08 T00440044
Loading
Personal Weather Stations






























Interactive Weather Map New forecast layout! Learn more

10-Day Weather Forecast

Advertisements
Track Severe Weather on mobile